Time;durP1;ratioP1;P1;durP2;ratioP2;P2;SDS_P1;SDS_P2;PMS_P1;PMS_P2;Temp;Humidity;BMP_temperature;BMP_pressure;BME280_temperature;BME280_humidity;BME280_pressure;Samples;Min_cycle;Max_cycle;Signal;HPM_P1;HPM_P2
2021/11/11 00:01:40;;;;;;;15.57;8.63;;;;;;;2.56;99.59;102426.03;5030440;28;20041;-72
2021/11/11 00:04:09;;;;;;;14.52;8.93;;;;;;;2.75;99.98;102461.94;5018591;28;20562;-70
2021/11/11 00:06:34;;;;;;;11.23;7.00;;;;;;;2.62;99.96;102430.84;5010935;28;20046;-71
2021/11/11 00:09:00;;;;;;;13.25;8.38;;;;;;;2.81;99.75;102454.00;5010828;28;20076;-69
2021/11/11 00:11:25;;;;;;;12.75;8.40;;;;;;;2.61;99.17;102401.91;5011095;28;20041;-74
2021/11/11 00:13:51;;;;;;;14.35;8.73;;;;;;;2.34;99.16;102344.84;5011191;28;20033;-69
2021/11/11 00:16:16;;;;;;;14.90;8.57;;;;;;;2.72;99.18;102408.09;5011413;28;20018;-70
2021/11/11 00:18:42;;;;;;;14.73;8.60;;;;;;;2.75;98.70;102418.56;5002975;28;20045;-70
2021/11/11 00:21:08;;;;;;;12.25;8.02;;;;;;;2.42;98.31;102349.06;4995046;28;20026;-71
2021/11/11 00:23:33;;;;;;;11.23;8.40;;;;;;;2.47;98.33;102346.06;4995141;28;20034;-67
2021/11/11 00:25:59;;;;;;;14.02;8.00;;;;;;;2.98;97.51;102427.63;4994822;28;20082;-70
2021/11/11 00:28:24;;;;;;;11.57;7.93;;;;;;;3.11;97.12;102429.75;4994996;28;20113;-68
2021/11/11 00:30:50;;;;;;;11.55;8.73;;;;;;;3.24;97.04;102425.09;4995117;28;20030;-68
2021/11/11 00:33:15;;;;;;;12.30;8.55;;;;;;;3.28;95.79;102439.03;4993351;28;20026;-69
2021/11/11 00:35:41;;;;;;;14.90;9.43;;;;;;;3.23;96.06;102433.50;4995050;28;20026;-69
2021/11/11 00:38:07;;;;;;;12.32;8.20;;;;;;;2.82;96.56;102361.44;4994799;28;20035;-69
2021/11/11 00:40:33;;;;;;;11.77;7.90;;;;;;;2.98;96.30;102425.06;4996593;28;20030;-69
2021/11/11 00:43:00;;;;;;;11.75;8.15;;;;;;;2.67;98.05;102433.13;4996970;28;20447;-68
2021/11/11 00:45:26;;;;;;;11.70;8.18;;;;;;;2.47;99.30;102425.09;5014292;28;20014;-71
2021/11/11 00:47:54;;;;;;;11.50;7.70;;;;;;;2.40;98.99;102426.13;5014026;28;20033;-71
2021/11/11 00:50:22;;;;;;;14.63;8.32;;;;;;;1.61;99.72;102308.63;5021575;28;20021;-68
2021/11/11 00:52:48;;;;;;;12.30;8.40;;;;;;;2.10;100.00;102384.94;5034453;28;20033;-68
2021/11/11 00:55:14;;;;;;;16.25;9.13;;;;;;;2.21;100.00;102418.28;5018502;28;20045;-70
2021/11/11 00:57:40;;;;;;;13.98;8.45;;;;;;;1.53;100.00;102353.63;5010849;28;20034;-70
2021/11/11 01:00:10;;;;;;;12.93;7.93;;;;;;;1.90;100.00;102420.22;5013229;28;20075;-69
2021/11/11 01:02:37;;;;;;;13.15;8.40;;;;;;;1.58;100.00;102369.41;5011011;28;20037;-70
2021/11/11 01:05:03;;;;;;;17.00;9.33;;;;;;;1.96;100.00;102395.38;5013317;28;20054;-69
2021/11/11 01:07:30;;;;;;;13.75;8.25;;;;;;;2.10;100.00;102384.94;5012755;28;20025;-69
2021/11/11 01:09:55;;;;;;;13.30;8.37;;;;;;;2.15;99.82;102395.59;5022267;28;20130;-68
2021/11/11 01:12:21;;;;;;;13.07;7.93;;;;;;;1.87;100.00;102374.03;5031244;28;20096;-67
2021/11/11 01:14:46;;;;;;;15.15;9.45;;;;;;;2.06;99.62;102394.69;5032044;28;20030;-70
2021/11/11 01:17:12;;;;;;;16.35;9.75;;;;;;;2.08;99.66;102396.63;5033465;28;20479;-70
2021/11/11 01:19:38;;;;;;;42.10;29.80;;;;;;;1.94;99.32;102371.38;5013605;28;20029;-66
2021/11/11 01:22:04;;;;;;;24.93;16.60;;;;;;;2.07;99.53;102393.94;5013852;28;20399;-69
2021/11/11 01:24:29;;;;;;;15.27;11.82;;;;;;;2.25;99.23;102394.91;5013823;28;20036;-70
2021/11/11 01:26:55;;;;;;;18.63;12.23;;;;;;;2.45;98.92;102389.25;5013953;28;20038;-69
2021/11/11 01:29:21;;;;;;;13.07;9.40;;;;;;;2.61;96.98;102386.59;5012517;28;20045;-68
2021/11/11 01:31:46;;;;;;;11.15;9.00;;;;;;;2.38;96.07;102341.88;5013645;28;20029;-69
2021/11/11 01:34:12;;;;;;;15.73;12.75;;;;;;;2.42;95.90;102359.25;5013491;28;20055;-70
2021/11/11 01:36:37;;;;;;;16.25;10.93;;;;;;;2.49;95.65;102385.38;5013303;28;20033;-69
2021/11/11 01:39:05;;;;;;;12.15;9.48;;;;;;;2.38;96.07;102374.09;5013601;28;20484;-68
2021/11/11 01:41:32;;;;;;;14.20;9.07;;;;;;;2.39;96.46;102369.16;5028964;28;20029;-68
2021/11/11 01:43:57;;;;;;;13.73;9.45;;;;;;;2.47;96.47;102376.66;5032414;28;20022;-70
2021/11/11 01:46:23;;;;;;;16.33;9.27;;;;;;;2.40;96.69;102372.59;5032425;28;20128;-69
2021/11/11 01:48:48;;;;;;;14.07;8.90;;;;;;;2.24;96.93;102365.06;5032228;28;20030;-68
2021/11/11 01:51:17;;;;;;;14.93;9.23;;;;;;;2.01;98.07;102372.94;5031897;28;20466;-71
2021/11/11 01:53:43;;;;;;;14.30;9.30;;;;;;;1.47;99.46;102321.56;5032095;28;20052;-67
2021/11/11 01:56:09;;;;;;;12.47;9.07;;;;;;;2.01;99.24;102375.47;5031794;28;20029;-66
2021/11/11 01:58:36;;;;;;;15.27;9.73;;;;;;;2.05;98.89;102381.03;5031498;28;20555;-67
2021/11/11 02:01:02;;;;;;;17.67;11.67;;;;;;;1.68;99.52;102367.03;5031958;28;20038;-72
2021/11/11 02:03:27;;;;;;;18.23;13.60;;;;;;;1.65;99.85;102379.47;5031862;28;20050;-68
2021/11/11 02:05:53;;;;;;;20.17;13.37;;;;;;;1.63;100.00;102377.50;5031901;28;20045;-65
2021/11/11 02:08:19;;;;;;;19.03;14.40;;;;;;;1.53;100.00;102371.44;5031850;28;20037;-69
2021/11/11 02:10:45;;;;;;;24.07;13.53;;;;;;;1.50;100.00;102380.44;5030922;28;20056;-70
2021/11/11 02:13:11;;;;;;;17.77;12.03;;;;;;;1.45;100.00;102369.78;5031570;28;20033;-66
2021/11/11 02:15:37;;;;;;;21.23;13.57;;;;;;;1.59;100.00;102366.13;5032026;28;20025;-67
2021/11/11 02:18:05;;;;;;;16.00;10.93;;;;;;;1.04;100.00;102264.59;5026172;28;20377;-68
2021/11/11 02:20:34;;;;;;;13.43;9.73;;;;;;;1.77;100.00;102372.22;5012669;28;20112;-69
2021/11/11 02:23:01;;;;;;;14.37;9.13;;;;;;;1.28;99.41;102274.78;5012671;28;20022;-65
2021/11/11 02:25:28;;;;;;;13.57;8.27;;;;;;;1.60;99.27;102366.25;5011398;28;20542;-66
2021/11/11 02:28:10;;;;;;;12.13;7.60;;;;;;;1.66;99.87;102368.56;5012299;28;20025;-69
2021/11/11 02:30:36;;;;;;;12.73;6.97;;;;;;;1.33;99.75;102295.59;5011364;28;20539;-70
2021/11/11 02:33:09;;;;;;;11.17;7.47;;;;;;;1.81;98.99;102343.78;5012307;28;20033;-66
2021/11/11 02:35:35;;;;;;;11.83;7.70;;;;;;;1.98;97.95;102354.78;5012310;28;20392;-65
2021/11/11 02:38:01;;;;;;;12.70;7.15;;;;;;;2.19;97.67;102363.69;5026826;28;20034;-66
2021/11/11 02:40:27;;;;;;;13.20;8.33;;;;;;;2.34;97.02;102360.13;5029706;28;20033;-67
2021/11/11 02:42:53;;;;;;;18.05;8.95;;;;;;;1.47;96.35;102192.69;5028616;28;20079;-69
2021/11/11 02:45:31;;;;;;;15.02;8.85;;;;;;;1.88;95.37;102243.41;5030675;28;20033;-68
2021/11/11 02:47:58;;;;;;;12.18;7.13;;;;;;;2.51;95.38;102343.97;5030936;28;20032;-68
2021/11/11 02:50:24;;;;;;;9.80;6.45;;;;;;;2.62;95.21;102352.72;5030586;28;20473;-66
2021/11/11 02:52:51;;;;;;;10.25;6.03;;;;;;;2.68;95.12;102348.22;5030485;28;20026;-69
2021/11/11 02:55:17;;;;;;;10.02;6.95;;;;;;;2.80;95.98;102343.41;5031126;28;20032;-68
2021/11/11 02:57:46;;;;;;;10.45;6.55;;;;;;;2.63;94.74;102305.16;5030879;28;20026;-68
2021/11/11 03:00:12;;;;;;;10.90;6.80;;;;;;;2.61;93.88;102294.81;5030983;28;20029;-68
2021/11/11 03:02:40;;;;;;;17.38;11.57;;;;;;;2.79;96.36;102330.50;5029036;28;20383;-69
2021/11/11 03:05:08;;;;;;;15.07;10.95;;;;;;;2.89;98.58;102338.31;5030129;28;20435;-68
2021/11/11 03:07:34;;;;;;;15.68;10.02;;;;;;;2.83;98.36;102324.94;5030733;28;20834;-65
2021/11/11 03:10:00;;;;;;;11.57;7.93;;;;;;;2.70;99.51;102343.25;5030740;28;20049;-65
2021/11/11 03:12:26;;;;;;;10.63;6.43;;;;;;;2.45;100.00;102342.47;5030825;28;20084;-68
2021/11/11 03:14:53;;;;;;;17.27;7.93;;;;;;;2.14;100.00;102309.72;5031161;28;20475;-66
2021/11/11 03:17:18;;;;;;;10.88;7.57;;;;;;;2.18;100.00;102329.69;5030342;28;20037;-67
2021/11/11 03:19:44;;;;;;;12.00;6.95;;;;;;;2.04;100.00;102286.59;5028278;28;20479;-70
2021/11/11 03:22:15;;;;;;;10.98;7.40;;;;;;;2.47;100.00;102323.13;5026257;28;20496;-68
2021/11/11 03:24:41;;;;;;;8.93;6.10;;;;;;;2.61;100.00;102327.94;5031560;28;20164;-69
2021/11/11 03:27:08;;;;;;;10.13;6.68;;;;;;;2.70;100.00;102321.19;5031226;28;20122;-69
2021/11/11 03:29:34;;;;;;;10.55;6.70;;;;;;;1.86;100.00;102153.25;5031482;28;20484;-70
2021/11/11 03:31:59;;;;;;;12.90;6.60;;;;;;;2.85;100.00;102310.72;5031119;28;20100;-69
2021/11/11 03:34:26;;;;;;;12.80;7.07;;;;;;;2.88;99.57;102299.16;5031642;28;20114;-69
2021/11/11 03:36:53;;;;;;;9.30;6.03;;;;;;;2.75;99.56;102294.53;5031248;28;20610;-69
2021/11/11 03:39:19;;;;;;;10.30;7.20;;;;;;;2.79;100.00;102308.47;5031402;28;20048;-69
2021/11/11 03:41:46;;;;;;;10.68;7.18;;;;;;;2.89;100.00;102300.03;5031471;28;20091;-68
2021/11/11 03:44:15;;;;;;;13.10;6.90;;;;;;;2.85;100.00;102281.00;5031253;28;20026;-69
2021/11/11 03:46:44;;;;;;;10.70;6.97;;;;;;;2.72;100.00;102268.69;5031217;28;20037;-68
2021/11/11 03:49:10;;;;;;;10.10;6.93;;;;;;;2.24;100.00;102187.59;5031323;28;20030;-68
2021/11/11 03:51:35;;;;;;;11.25;6.95;;;;;;;2.82;100.00;102287.47;5032288;28;20544;-68
2021/11/11 03:54:01;;;;;;;15.35;6.93;;;;;;;2.46;100.00;102283.09;5035328;28;20033;-67
2021/11/11 03:56:27;;;;;;;12.80;7.78;;;;;;;1.87;100.00;102293.47;5035209;28;20034;-69
2021/11/11 03:58:52;;;;;;;11.70;7.05;;;;;;;1.63;100.00;102293.50;5034938;28;20037;-68
2021/11/11 04:01:18;;;;;;;11.07;7.00;;;;;;;1.67;100.00;102280.34;5035027;28;20060;-68
2021/11/11 04:03:44;;;;;;;13.57;7.10;;;;;;;1.66;100.00;102286.16;5035047;28;20056;-68
2021/11/11 04:06:10;;;;;;;14.47;7.83;;;;;;;1.77;100.00;102281.44;5035030;28;20044;-69
2021/11/11 04:08:35;;;;;;;13.30;7.67;;;;;;;1.76;99.77;102274.53;5035203;28;20033;-68
2021/11/11 04:11:02;;;;;;;11.83;7.00;;;;;;;1.65;99.66;102282.72;5016205;28;20171;-68
2021/11/11 04:13:28;;;;;;;12.27;7.90;;;;;;;1.40;99.54;102239.50;5034960;28;20036;-68
2021/11/11 04:15:54;;;;;;;10.43;7.60;;;;;;;1.67;99.29;102271.06;5034820;28;20033;-68
2021/11/11 04:18:20;;;;;;;12.63;7.80;;;;;;;1.62;99.00;102254.44;5035147;28;20021;-68
2021/11/11 04:20:46;;;;;;;14.23;7.47;;;;;;;1.83;99.06;102273.50;5035446;28;20029;-68
2021/11/11 04:23:12;;;;;;;12.03;7.70;;;;;;;1.77;98.85;102242.34;5035053;28;20080;-66
2021/11/11 04:25:46;;;;;;;14.30;7.60;;;;;;;1.81;98.08;102244.44;5034714;28;20400;-68
2021/11/11 04:28:18;;;;;;;14.37;8.53;;;;;;;2.04;97.33;102266.22;5034612;28;20026;-69
2021/11/11 04:30:47;;;;;;;14.63;8.80;;;;;;;2.03;97.49;102265.34;5034455;28;20076;-69
2021/11/11 04:33:14;;;;;;;14.90;8.70;;;;;;;1.90;97.47;102234.28;5034776;28;20037;-69
2021/11/11 04:35:41;;;;;;;13.53;9.13;;;;;;;2.04;98.18;102267.13;5034455;28;20098;-68
2021/11/11 05:04:13;;;;;;;9.60;6.20;;;;;;;2.09;100.00;102166.59;5033027;28;20137;-70
2021/11/11 05:06:38;;;;;;;15.65;7.30;;;;;;;2.41;100.00;102249.50;5033812;28;20034;-68
2021/11/11 05:09:05;;;;;;;13.48;8.93;;;;;;;2.18;100.00;102239.56;5034110;28;20033;-69
2021/11/11 05:11:33;;;;;;;21.98;13.32;;;;;;;1.88;100.00;102251.06;5033849;28;20036;-69
2021/11/11 05:13:58;;;;;;;22.92;15.88;;;;;;;1.20;100.00;102138.22;5033825;28;20056;-68
2021/11/11 05:16:24;;;;;;;23.30;16.07;;;;;;;1.23;100.00;102217.41;5033551;28;20483;-68
2021/11/11 05:18:49;;;;;;;19.83;13.30;;;;;;;0.93;100.00;102246.53;5033644;28;20163;-68
2021/11/11 05:21:15;;;;;;;23.03;14.23;;;;;;;0.92;100.00;102248.94;5033782;28;20515;-68
2021/11/11 05:24:01;;;;;;;23.13;14.90;;;;;;;1.20;100.00;102255.25;5033658;28;20470;-68
2021/11/11 05:26:26;;;;;;;21.60;12.77;;;;;;;1.42;100.00;102253.28;4994275;28;20440;-68
2021/11/11 05:28:52;;;;;;;18.40;11.70;;;;;;;1.32;100.00;102245.47;4991732;28;20049;-68
2021/11/11 05:31:20;;;;;;;13.83;7.93;;;;;;;0.62;100.00;102158.56;4975464;28;20042;-67
2021/11/11 05:33:46;;;;;;;12.47;7.07;;;;;;;1.15;100.00;102266.59;4992027;28;20077;-68
2021/11/11 05:36:11;;;;;;;11.77;7.17;;;;;;;1.18;100.00;102266.03;4991657;28;20042;-68
2021/11/11 05:38:37;;;;;;;11.97;7.07;;;;;;;0.87;100.00;102219.59;4991699;28;20030;-68
2021/11/11 05:41:02;;;;;;;18.90;7.57;;;;;;;1.34;100.00;102266.84;4991794;28;20034;-67
2021/11/11 05:43:28;;;;;;;12.70;7.87;;;;;;;0.96;100.00;102159.53;5006357;28;20029;-68
2021/11/11 05:45:53;;;;;;;28.37;15.43;;;;;;;1.76;100.00;102266.91;4999998;28;20121;-69
2021/11/11 05:48:19;;;;;;;27.60;17.07;;;;;;;1.87;100.00;102241.59;5002014;28;20456;-67
2021/11/11 05:50:45;;;;;;;20.67;12.90;;;;;;;2.17;100.00;102260.69;4998604;28;20061;-67
2021/11/11 05:53:10;;;;;;;28.37;13.80;;;;;;;2.18;100.00;102250.69;4991277;28;20476;-68
2021/11/11 05:55:36;;;;;;;22.55;11.82;;;;;;;2.39;100.00;102251.91;4991315;28;20061;-67
2021/11/11 05:58:02;;;;;;;20.60;13.23;;;;;;;2.25;100.00;102263.25;5007471;28;20038;-67
2021/11/11 06:00:28;;;;;;;20.17;11.02;;;;;;;2.38;99.90;102264.47;5010943;28;20030;-70
2021/11/11 06:02:54;;;;;;;25.60;14.37;;;;;;;2.21;98.00;102266.25;5013077;28;20124;-65
2021/11/11 06:05:20;;;;;;;17.20;10.67;;;;;;;1.98;98.14;102270.72;5013054;28;20388;-66
2021/11/11 06:07:46;;;;;;;19.03;11.73;;;;;;;1.80;99.76;102274.88;5012752;28;20415;-68
2021/11/11 06:10:12;;;;;;;18.50;11.13;;;;;;;1.49;100.00;102216.63;5012920;28;20037;-70
2021/11/11 06:12:38;;;;;;;17.03;10.23;;;;;;;2.00;100.00;102261.59;5012805;28;20032;-69
2021/11/11 06:15:04;;;;;;;16.27;10.20;;;;;;;2.01;99.50;102236.25;5012635;28;20490;-70
2021/11/11 06:17:30;;;;;;;15.82;10.60;;;;;;;2.18;99.27;102265.97;5012815;28;20431;-68
2021/11/11 06:19:56;;;;;;;16.63;10.27;;;;;;;2.08;99.10;102248.88;5013020;28;20033;-69
2021/11/11 06:22:22;;;;;;;15.63;10.30;;;;;;;2.16;99.52;102264.03;5012795;28;20033;-69
2021/11/11 06:24:48;;;;;;;22.97;11.87;;;;;;;2.20;100.00;102264.47;5012736;28;20543;-69
2021/11/11 06:27:17;;;;;;;18.40;11.17;;;;;;;2.05;100.00;102273.13;5012577;28;20072;-70
2021/11/11 06:29:42;;;;;;;17.67;10.80;;;;;;;2.22;100.00;102269.72;5012797;28;20091;-69
2021/11/11 06:32:08;;;;;;;17.67;11.98;;;;;;;2.37;100.00;102278.88;5012699;28;20030;-69
2021/11/11 06:34:33;;;;;;;15.83;11.53;;;;;;;1.49;100.00;102169.91;5012533;28;20072;-68
2021/11/11 06:36:59;;;;;;;23.53;15.37;;;;;;;2.21;100.00;102266.25;5012385;28;20030;-70
2021/11/11 06:39:24;;;;;;;37.97;20.05;;;;;;;2.28;100.00;102267.78;5012226;28;20036;-71
2021/11/11 06:41:50;;;;;;;19.40;13.13;;;;;;;2.39;100.00;102258.63;5015808;28;20037;-68
2021/11/11 06:44:22;;;;;;;17.65;12.13;;;;;;;2.46;99.30;102257.63;5032155;28;20033;-69
2021/11/11 06:46:48;;;;;;;20.50;11.23;;;;;;;2.61;98.95;102264.22;5030967;28;20072;-68
2021/11/11 06:49:13;;;;;;;18.05;11.10;;;;;;;2.83;98.82;102258.63;5032180;28;20454;-69
2021/11/11 06:51:39;;;;;;;15.98;11.10;;;;;;;3.02;97.40;102261.34;5032139;28;20030;-68
2021/11/11 06:54:05;;;;;;;12.98;9.43;;;;;;;3.01;96.30;102229.78;5031984;28;20125;-69
2021/11/11 06:56:30;;;;;;;18.15;10.48;;;;;;;3.31;95.94;102248.78;5031938;28;20112;-69
2021/11/11 06:58:55;;;;;;;11.25;8.50;;;;;;;2.86;95.56;102146.72;5032008;28;20026;-69
2021/11/11 07:01:21;;;;;;;13.40;9.70;;;;;;;3.63;95.68;102247.50;5031929;28;20118;-69
2021/11/11 07:03:48;;;;;;;13.00;9.05;;;;;;;3.61;95.36;102197.91;5031611;28;20056;-69
2021/11/11 07:06:14;;;;;;;13.50;8.98;;;;;;;4.01;94.57;102243.38;5032128;28;20045;-70
2021/11/11 07:08:39;;;;;;;17.17;11.65;;;;;;;4.11;94.13;102249.31;5031955;28;20029;-69
2021/11/11 07:11:05;;;;;;;17.02;10.60;;;;;;;4.05;94.16;102234.34;5031051;28;20033;-69
2021/11/11 07:13:31;;;;;;;14.73;9.80;;;;;;;3.95;94.93;102236.78;5030466;28;20120;-69
2021/11/11 07:15:57;;;;;;;15.65;10.52;;;;;;;3.77;96.94;102230.88;5031602;28;20094;-69
2021/11/11 07:18:22;;;;;;;19.15;10.77;;;;;;;3.87;97.06;102228.41;5030316;28;20029;-68
2021/11/11 07:20:49;;;;;;;18.27;10.38;;;;;;;3.64;98.24;102214.41;5030915;28;20029;-69
2021/11/11 07:23:20;;;;;;;14.88;9.10;;;;;;;3.93;99.14;102229.00;5030242;28;20044;-69
2021/11/11 07:25:46;;;;;;;18.48;11.05;;;;;;;4.21;97.54;102226.38;5030916;28;20025;-69
2021/11/11 07:28:14;;;;;;;14.70;10.98;;;;;;;4.45;96.35;102219.13;5031283;28;20407;-69
2021/11/11 07:30:40;;;;;;;13.77;9.52;;;;;;;3.64;97.40;102117.38;5031561;28;20061;-69
2021/11/11 07:33:05;;;;;;;15.05;9.25;;;;;;;4.38;96.88;102212.59;5031281;28;20060;-68
2021/11/11 07:35:31;;;;;;;20.35;9.32;;;;;;;4.50;96.37;102217.91;5031360;28;20034;-68
2021/11/11 07:37:57;;;;;;;13.45;8.70;;;;;;;4.59;96.39;102185.47;5012349;28;20107;-70
2021/11/11 07:40:25;;;;;;;13.23;8.82;;;;;;;4.65;96.43;102191.13;5031087;28;20495;-68
2021/11/11 07:42:50;;;;;;;15.13;9.15;;;;;;;4.87;96.09;102198.13;5031318;28;20075;-70
2021/11/11 08:20:13;;;;;;;11.57;5.43;;;;;;;6.18;90.47;102157.13;5025765;28;20053;-65
2021/11/11 08:22:40;;;;;;;13.35;7.57;;;;;;;6.34;90.55;102159.25;5030041;28;20458;-68
2021/11/11 08:25:10;;;;;;;12.80;6.50;;;;;;;6.42;89.00;102135.13;4985433;28;20086;-70
2021/11/11 08:27:38;;;;;;;12.98;7.00;;;;;;;6.72;87.95;102155.44;4947334;28;20481;-70
2021/11/11 08:30:07;;;;;;;9.70;6.97;;;;;;;6.54;87.10;102101.88;4947964;28;20039;-68
2021/11/11 08:32:34;;;;;;;11.23;6.82;;;;;;;6.96;86.84;102161.59;4983838;28;20093;-71
2021/11/11 08:35:25;;;;;;;9.80;5.85;;;;;;;7.06;87.02;102147.81;4969383;28;20039;-70
2021/11/11 08:37:55;;;;;;;9.50;6.05;;;;;;;7.25;86.79;102156.19;4949722;28;20035;-70
2021/11/11 08:40:28;;;;;;;10.13;6.03;;;;;;;7.29;86.03;102147.94;4902478;29;20094;-69
2021/11/11 08:42:59;;;;;;;12.68;5.82;;;;;;;6.94;87.21;102133.25;4906696;28;20063;-70
2021/11/11 08:45:50;;;;;;;9.23;6.03;;;;;;;7.04;87.99;102140.00;4954324;29;20184;-69
2021/11/11 08:48:37;;;;;;;6.95;4.68;;;;;;;7.29;84.20;102135.06;4916215;29;20124;-70
2021/11/11 08:51:09;;;;;;;10.40;5.65;;;;;;;7.18;84.06;102083.63;4915801;29;20487;-69
2021/11/11 08:53:35;;;;;;;9.18;5.70;;;;;;;7.55;84.91;102123.34;4916079;29;20491;-70
2021/11/11 08:56:05;;;;;;;9.70;5.55;;;;;;;7.71;85.04;102132.19;4907415;29;20130;-70
2021/11/11 08:58:34;;;;;;;;;;;;;;;7.73;83.45;102120.38;4887674;29;20536;-70
2021/11/11 09:01:26;;;;;;;10.13;6.00;;;;;;;7.81;85.02;102116.66;4934853;29;19907;-70
2021/11/11 09:03:56;;;;;;;9.27;6.38;;;;;;;7.95;83.63;102110.00;4895295;29;20044;-71
2021/11/11 09:06:27;;;;;;;9.13;6.05;;;;;;;8.17;83.30;102109.00;4884390;29;20549;-70
2021/11/11 09:08:57;;;;;;;7.40;5.45;;;;;;;8.31;82.67;102105.75;4902785;29;20597;-69
2021/11/11 09:11:29;;;;;;;9.70;4.72;;;;;;;8.33;80.81;102095.56;4918662;29;20040;-70
2021/11/11 09:13:56;;;;;;;13.00;6.53;;;;;;;8.41;80.07;102094.44;4902684;29;20126;-70
2021/11/11 09:16:24;;;;;;;7.65;5.10;;;;;;;8.64;81.28;102095.25;4903125;29;20046;-69
2021/11/11 09:18:56;;;;;;;9.57;5.03;;;;;;;8.78;79.99;102096.22;4893535;29;20046;-69
2021/11/11 09:21:26;;;;;;;7.38;4.47;;;;;;;8.77;77.81;102087.56;4951374;28;20051;-70
2021/11/11 09:23:52;;;;;;;6.85;4.30;;;;;;;8.89;77.71;102084.97;4922341;29;20035;-70
2021/11/11 09:26:18;;;;;;;8.70;4.07;;;;;;;8.93;77.93;102070.63;4899087;29;20063;-67
2021/11/11 09:28:45;;;;;;;8.45;4.07;;;;;;;9.10;76.58;102072.69;4915006;29;20865;-70
2021/11/11 09:31:11;;;;;;;6.53;3.80;;;;;;;9.00;76.83;102062.53;4911212;29;20499;-70
2021/11/11 09:33:38;;;;;;;8.43;4.20;;;;;;;9.02;79.53;102045.50;4915102;29;20495;-70
2021/11/11 09:36:05;;;;;;;8.00;3.50;;;;;;;9.21;78.02;102045.09;4971413;28;20039;-70
2021/11/11 09:38:30;;;;;;;6.18;2.97;;;;;;;9.29;75.79;102048.19;4972534;28;20043;-70
2021/11/11 09:40:56;;;;;;;5.05;2.40;;;;;;;9.12;75.28;102029.91;4972065;28;20035;-70
2021/11/11 09:43:23;;;;;;;8.43;3.33;;;;;;;9.21;76.23;102027.03;4972109;28;20034;-70
2021/11/11 09:45:48;;;;;;;7.53;3.00;;;;;;;9.40;74.06;102042.06;4972326;28;20531;-70
2021/11/11 09:48:15;;;;;;;8.27;3.03;;;;;;;9.55;74.86;102029.28;4972285;28;20119;-70
2021/11/11 09:50:41;;;;;;;7.78;3.15;;;;;;;9.57;74.97;102032.88;4971963;28;20085;-71
2021/11/11 09:53:12;;;;;;;7.38;3.70;;;;;;;9.76;74.96;102027.22;4972144;28;20038;-70
2021/11/11 09:58:34;;;;;;;5.80;3.05;;;;;;;9.96;74.96;102020.78;4972130;28;20437;-70
2021/11/11 10:01:04;;;;;;;8.50;3.75;;;;;;;9.97;75.03;102020.00;4971916;28;20026;-70
2021/11/11 10:03:30;;;;;;;8.57;2.38;;;;;;;10.03;72.26;102010.06;4988163;28;20042;-71
2021/11/11 10:05:56;;;;;;;7.15;3.10;;;;;;;10.09;74.90;102006.09;5012808;28;20038;-70
2021/11/11 10:08:46;;;;;;;8.48;5.43;;;;;;;10.08;75.75;101992.31;5013400;28;20040;-70
2021/11/11 10:11:26;;;;;;;5.35;3.47;;;;;;;10.08;74.51;101988.81;5013197;28;20021;-70
2021/11/11 10:14:04;;;;;;;4.97;3.22;;;;;;;10.08;73.41;101992.31;5012962;28;20117;-67
2021/11/11 10:16:33;;;;;;;5.28;2.80;;;;;;;10.03;72.82;101978.19;4962038;28;20121;-70
2021/11/11 10:19:01;;;;;;;4.07;2.13;;;;;;;10.16;71.82;101978.19;5012995;28;20029;-70
2021/11/11 10:24:18;;;;;;;4.75;2.30;;;;;;;10.43;71.94;101969.50;5032527;28;20449;-70
2021/11/11 10:27:25;;;;;;;;;;;;;;;10.39;72.61;101965.84;5030009;28;20072;-66
2021/11/11 10:29:53;;;;;;;5.40;2.67;;;;;;;10.20;72.33;101967.28;4949285;29;19953;-70
2021/11/11 10:32:21;;;;;;;5.95;2.75;;;;;;;10.37;72.31;101951.97;4951910;29;20053;-70
2021/11/11 10:35:02;;;;;;;5.55;2.50;;;;;;;10.50;70.23;101945.84;4952031;29;20809;-71
2021/11/11 10:37:32;;;;;;;3.95;2.40;;;;;;;10.39;70.24;101940.03;4952054;29;20032;-70
2021/11/11 10:40:13;;;;;;;4.95;2.10;;;;;;;10.58;69.33;101926.56;4952023;29;20572;-71
2021/11/11 10:42:42;;;;;;;5.63;2.63;;;;;;;10.73;70.54;101916.25;4952063;29;20549;-71
2021/11/11 10:45:14;;;;;;;6.43;2.40;;;;;;;10.62;69.61;101889.78;4951945;29;20122;-71
2021/11/11 10:47:43;;;;;;;4.88;2.28;;;;;;;10.80;69.57;101909.75;4952072;29;20043;-68
2021/11/11 10:50:17;;;;;;;4.50;2.20;;;;;;;10.64;67.35;101907.94;4952017;29;20041;-71
2021/11/11 10:52:50;;;;;;;17.27;10.25;;;;;;;9.98;69.48;101840.28;4951976;29;20243;-71
2021/11/11 10:55:27;;;;;;;5.10;2.75;;;;;;;10.65;68.87;101899.41;4949235;29;20458;-71
2021/11/11 10:57:54;;;;;;;6.35;2.72;;;;;;;10.50;69.03;101858.06;4941678;29;20491;-70
2021/11/11 11:00:23;;;;;;;13.20;3.75;;;;;;;10.84;69.10;101904.88;4946402;28;20047;-71
2021/11/11 11:02:54;;;;;;;14.90;7.10;;;;;;;10.71;69.51;101899.78;4950816;29;20039;-72
2021/11/11 11:05:23;;;;;;;7.65;4.07;;;;;;;10.49;71.11;101831.38;4964398;28;20061;-70
2021/11/11 11:07:55;;;;;;;6.43;3.10;;;;;;;10.99;69.00;101888.47;5025741;28;20025;-69
2021/11/11 11:10:21;;;;;;;9.75;4.65;;;;;;;11.09;70.96;101887.31;5033415;28;20025;-70
2021/11/11 11:12:47;;;;;;;6.93;4.45;;;;;;;10.95;69.47;101876.16;5031331;28;20030;-70
2021/11/11 11:15:34;;;;;;;6.13;3.97;;;;;;;10.96;69.56;101891.75;5031420;28;20025;-69
2021/11/11 11:17:59;;;;;;;4.22;2.35;;;;;;;11.10;68.46;101874.50;5031219;28;20033;-70
2021/11/11 11:20:27;;;;;;;10.48;3.13;;;;;;;11.29;68.40;101878.09;5031522;28;20115;-69
2021/11/11 11:23:19;;;;;;;9.88;5.10;;;;;;;11.11;70.47;101837.47;5031347;28;20028;-70
2021/11/11 11:25:55;;;;;;;12.43;5.28;;;;;;;11.39;68.47;101869.16;5031844;28;20035;-70
2021/11/11 11:28:43;;;;;;;5.80;3.60;;;;;;;11.56;67.78;101867.53;5031261;28;20029;-69
2021/11/11 11:31:10;;;;;;;9.18;4.45;;;;;;;11.27;67.92;101800.47;5030828;28;20037;-69
2021/11/11 11:33:43;;;;;;;9.07;3.63;;;;;;;10.93;69.29;101771.84;5012109;28;20469;-76
2021/11/11 11:36:15;;;;;;;16.25;7.65;;;;;;;11.38;69.76;101857.06;5031257;28;20036;-69
2021/11/11 11:38:50;;;;;;;13.73;4.10;;;;;;;11.26;69.36;101834.00;5031282;28;20447;-71
2021/11/11 11:41:32;;;;;;;11.25;4.85;;;;;;;11.00;68.25;101768.78;5031296;28;20099;-68
2021/11/11 11:44:20;;;;;;;9.80;3.83;;;;;;;11.53;67.89;101846.69;5030838;28;20458;-68
2021/11/11 11:47:09;;;;;;;11.23;5.20;;;;;;;11.71;67.20;101836.44;5030987;28;20119;-67
2021/11/11 11:49:37;;;;;;;7.28;3.90;;;;;;;11.49;68.26;101835.28;5030959;28;20072;-69
2021/11/11 11:52:04;;;;;;;6.47;3.63;;;;;;;11.51;69.67;101840.53;5030761;28;20104;-67
2021/11/11 11:57:03;;;;;;;5.40;3.08;;;;;;;11.38;68.70;101816.56;5030560;28;20039;-70
2021/11/11 11:59:34;;;;;;;8.52;4.80;;;;;;;11.37;69.48;101814.78;5031035;28;20154;-70
2021/11/11 12:02:10;;;;;;;6.97;3.72;;;;;;;11.56;68.37;101826.16;5030898;28;20087;-70
2021/11/11 12:40:30;;;;;;;8.32;2.78;;;;;;;11.42;67.47;101794.38;4954596;29;20602;-70
2021/11/11 12:43:00;;;;;;;8.43;1.90;;;;;;;11.42;67.71;101791.78;4985847;28;20061;-71
2021/11/11 12:45:34;;;;;;;18.92;4.30;;;;;;;11.47;67.44;101788.63;5034412;28;20108;-71
2021/11/11 12:48:16;;;;;;;9.73;2.28;;;;;;;11.48;66.94;101785.22;5034609;28;20033;-70
2021/11/11 12:50:42;;;;;;;7.97;3.13;;;;;;;11.28;68.03;101784.16;5034397;28;20025;-69
2021/11/11 12:53:11;;;;;;;6.88;2.40;;;;;;;11.24;68.94;101794.22;5034890;28;20040;-69
2021/11/11 12:55:57;;;;;;;7.78;2.75;;;;;;;11.29;68.65;101792.78;5034592;28;20029;-70
2021/11/11 12:58:43;;;;;;;4.57;1.88;;;;;;;11.29;67.39;101766.94;5034264;28;20064;-69
2021/11/11 13:01:13;;;;;;;5.38;1.92;;;;;;;11.44;67.49;101784.97;5034138;28;20037;-69
2021/11/11 13:03:49;;;;;;;8.65;2.05;;;;;;;11.44;67.45;101778.13;5034458;28;20407;-69
2021/11/11 13:06:32;;;;;;;5.78;1.85;;;;;;;11.44;66.42;101777.22;5033960;28;20121;-69
2021/11/11 13:08:59;;;;;;;4.13;1.73;;;;;;;11.47;69.16;101773.09;5032342;28;20504;-69
2021/11/11 13:11:27;;;;;;;4.45;2.00;;;;;;;11.12;66.61;101711.75;5023876;28;20492;-69
2021/11/11 13:14:16;;;;;;;6.28;2.15;;;;;;;11.42;67.05;101760.75;5022627;28;20460;-70